עמוד ראשי
METAR-TAF:

METAR-TAF

שדות תעופה :

El Hierro, ספרד

קו רוחב: 27-49N, קו אורך: 017-53W, גובה: 32מטר

תצפית מזג אוויר נוכחית

הדו"ח נערך לפני 19דקות, בשעה 11:30 UTC
רוח 23קשר מכיוון צפון/צפון-מזרח, משתנה בין צפון ו צפון-מזרח
טמפרטורת 23 צלסיוס
לחות 65%
לחץ 1022 hPa
ראות 10 קילומטר או יותר
מעט עננים בגובה 2500רגל

METAR: GCHI 191130Z 03023KT 350V050 9999 FEW025 23/16 Q1022

זמן: 12:49 (11:49 UTC)

תחזית

הדו"ח נערך לפני 3 שעות ו 49דקות, בשעה 08:00 UTC
תחזית בתוקף מ 19 ב 09 UTC עד 20 ב 09 UTC
רוח 16קשר מכיוון צפון/צפון-מזרח
ראות 10 קילומטר או יותר
עננים פזורים בגובה 3000רגל

TAF: GCHI 190800Z 1909/2009 03016KT 9999 SCT030 TX24/1914Z TN20/2006Z

תצפיות ותחזיות מזג אוויר לגבי יותר מ- 4,000 שדות תעופה ברחבי העולם. דוחות METAR ו- TAF.

התחנות הזמינות מסומנות בנקודות צהובות ואדומות על גבי המפה.

העבר את העכבר לנקודה הצבעונית על מנת לראות את שם התחנה.

לאחר מכן, לחץ כדי לראות את תוכן ואת תחזיות מזג האוויר.

כדי לשנות את המפה: לחץ על הכפתורים הירוקים עם הפלוס השחור כדי להתקרב; על הכפתור הירוק עם המקף כדי להתרחק; או בחיצים הירוקים למפות סמוכות.


METAR-TAF: